sensor_id;sensor_type;location;lat;lon;timestamp;P1;durP1;ratioP1;P2;durP2;ratioP2
51556;SDS011;38766;53.194;5.532;2024-03-02T00:02:12;3.72;;;2.40;;
51556;SDS011;38766;53.194;5.532;2024-03-02T00:04:39;4.18;;;2.42;;
51556;SDS011;38766;53.194;5.532;2024-03-02T00:07:06;4.15;;;2.40;;
51556;SDS011;38766;53.194;5.532;2024-03-02T00:09:32;2.47;;;2.20;;
51556;SDS011;38766;53.194;5.532;2024-03-02T00:11:59;4.47;;;2.85;;
51556;SDS011;38766;53.194;5.532;2024-03-02T00:14:25;2.35;;;2.15;;
51556;SDS011;38766;53.194;5.532;2024-03-02T00:16:55;2.67;;;2.40;;
51556;SDS011;38766;53.194;5.532;2024-03-02T00:19:21;5.88;;;2.85;;
51556;SDS011;38766;53.194;5.532;2024-03-02T00:21:47;4.90;;;3.15;;
51556;SDS011;38766;53.194;5.532;2024-03-02T00:26:58;3.92;;;2.60;;
51556;SDS011;38766;53.194;5.532;2024-03-02T00:29:24;4.47;;;2.70;;
51556;SDS011;38766;53.194;5.532;2024-03-02T00:31:50;4.13;;;2.95;;
51556;SDS011;38766;53.194;5.532;2024-03-02T00:34:16;3.40;;;2.83;;
51556;SDS011;38766;53.194;5.532;2024-03-02T00:36:42;3.17;;;2.60;;
51556;SDS011;38766;53.194;5.532;2024-03-02T00:39:08;3.67;;;2.80;;
51556;SDS011;38766;53.194;5.532;2024-03-02T00:41:38;6.00;;;2.75;;
51556;SDS011;38766;53.194;5.532;2024-03-02T00:44:09;3.10;;;2.40;;
51556;SDS011;38766;53.194;5.532;2024-03-02T00:46:38;2.75;;;2.45;;
51556;SDS011;38766;53.194;5.532;2024-03-02T00:51:45;3.60;;;2.50;;
51556;SDS011;38766;53.194;5.532;2024-03-02T00:54:13;3.90;;;2.70;;
51556;SDS011;38766;53.194;5.532;2024-03-02T00:56:40;3.92;;;2.80;;
51556;SDS011;38766;53.194;5.532;2024-03-02T00:59:07;3.88;;;2.60;;
51556;SDS011;38766;53.194;5.532;2024-03-02T01:01:34;3.75;;;2.47;;
51556;SDS011;38766;53.194;5.532;2024-03-02T01:04:00;4.78;;;2.72;;
51556;SDS011;38766;53.194;5.532;2024-03-02T01:06:25;4.07;;;2.60;;
51556;SDS011;38766;53.194;5.532;2024-03-02T01:08:51;4.03;;;2.45;;
51556;SDS011;38766;53.194;5.532;2024-03-02T01:11:17;2.90;;;2.30;;
51556;SDS011;38766;53.194;5.532;2024-03-02T01:13:43;5.80;;;3.05;;
51556;SDS011;38766;53.194;5.532;2024-03-02T01:16:12;3.53;;;2.42;;
51556;SDS011;38766;53.194;5.532;2024-03-02T01:18:38;2.60;;;2.25;;
51556;SDS011;38766;53.194;5.532;2024-03-02T01:21:04;4.47;;;2.50;;
51556;SDS011;38766;53.194;5.532;2024-03-02T01:23:30;4.20;;;2.55;;
51556;SDS011;38766;53.194;5.532;2024-03-02T01:25:55;4.47;;;2.30;;
51556;SDS011;38766;53.194;5.532;2024-03-02T01:28:21;5.55;;;2.30;;
51556;SDS011;38766;53.194;5.532;2024-03-02T01:30:47;2.90;;;2.13;;
51556;SDS011;38766;53.194;5.532;2024-03-02T01:33:13;2.78;;;2.22;;
51556;SDS011;38766;53.194;5.532;2024-03-02T01:35:38;4.32;;;2.22;;
51556;SDS011;38766;53.194;5.532;2024-03-02T01:38:04;4.05;;;2.30;;
51556;SDS011;38766;53.194;5.532;2024-03-02T01:40:33;3.70;;;2.60;;
51556;SDS011;38766;53.194;5.532;2024-03-02T01:42:59;3.03;;;2.35;;
51556;SDS011;38766;53.194;5.532;2024-03-02T01:45:25;3.60;;;2.30;;
51556;SDS011;38766;53.194;5.532;2024-03-02T01:47:51;3.10;;;2.40;;
51556;SDS011;38766;53.194;5.532;2024-03-02T01:50:27;5.88;;;2.88;;
51556;SDS011;38766;53.194;5.532;2024-03-02T01:52:55;4.50;;;2.50;;
51556;SDS011;38766;53.194;5.532;2024-03-02T01:55:21;3.47;;;2.20;;
51556;SDS011;38766;53.194;5.532;2024-03-02T01:57:47;3.15;;;2.20;;
51556;SDS011;38766;53.194;5.532;2024-03-02T02:00:13;4.10;;;2.30;;
51556;SDS011;38766;53.194;5.532;2024-03-02T02:02:39;4.00;;;2.40;;
51556;SDS011;38766;53.194;5.532;2024-03-02T02:05:05;2.78;;;2.28;;
51556;SDS011;38766;53.194;5.532;2024-03-02T02:07:31;5.88;;;2.13;;
51556;SDS011;38766;53.194;5.532;2024-03-02T02:09:58;2.88;;;2.00;;
51556;SDS011;38766;53.194;5.532;2024-03-02T02:12:23;5.78;;;2.50;;
51556;SDS011;38766;53.194;5.532;2024-03-02T02:14:49;5.63;;;2.28;;
51556;SDS011;38766;53.194;5.532;2024-03-02T02:17:15;3.33;;;2.35;;
51556;SDS011;38766;53.194;5.532;2024-03-02T02:19:41;4.13;;;2.40;;
51556;SDS011;38766;53.194;5.532;2024-03-02T02:22:07;5.28;;;2.78;;
51556;SDS011;38766;53.194;5.532;2024-03-02T02:24:42;3.45;;;2.50;;
51556;SDS011;38766;53.194;5.532;2024-03-02T02:27:08;3.22;;;2.35;;
51556;SDS011;38766;53.194;5.532;2024-03-02T02:29:35;3.13;;;2.47;;
51556;SDS011;38766;53.194;5.532;2024-03-02T02:32:01;5.43;;;2.75;;
51556;SDS011;38766;53.194;5.532;2024-03-02T02:34:26;4.38;;;2.33;;
51556;SDS011;38766;53.194;5.532;2024-03-02T02:36:52;6.13;;;2.60;;
51556;SDS011;38766;53.194;5.532;2024-03-02T02:39:18;2.35;;;2.00;;
51556;SDS011;38766;53.194;5.532;2024-03-02T02:41:47;3.28;;;2.25;;
51556;SDS011;38766;53.194;5.532;2024-03-02T02:44:13;7.38;;;2.17;;
51556;SDS011;38766;53.194;5.532;2024-03-02T02:46:39;3.65;;;2.10;;
51556;SDS011;38766;53.194;5.532;2024-03-02T02:49:05;4.63;;;2.17;;
51556;SDS011;38766;53.194;5.532;2024-03-02T02:51:31;4.55;;;2.30;;
51556;SDS011;38766;53.194;5.532;2024-03-02T02:53:57;4.93;;;2.40;;
51556;SDS011;38766;53.194;5.532;2024-03-02T02:56:23;4.63;;;2.65;;
51556;SDS011;38766;53.194;5.532;2024-03-02T02:58:48;4.35;;;2.15;;
51556;SDS011;38766;53.194;5.532;2024-03-02T03:01:17;4.07;;;2.20;;
51556;SDS011;38766;53.194;5.532;2024-03-02T03:03:43;2.83;;;2.08;;
51556;SDS011;38766;53.194;5.532;2024-03-02T03:06:09;3.03;;;2.10;;
51556;SDS011;38766;53.194;5.532;2024-03-02T03:08:35;2.35;;;1.70;;
51556;SDS011;38766;53.194;5.532;2024-03-02T03:11:01;2.95;;;1.17;;
51556;SDS011;38766;53.194;5.532;2024-03-02T03:13:27;1.48;;;1.33;;
51556;SDS011;38766;53.194;5.532;2024-03-02T03:15:52;1.30;;;1.00;;
51556;SDS011;38766;53.194;5.532;2024-03-02T03:18:18;1.30;;;1.05;;
51556;SDS011;38766;53.194;5.532;2024-03-02T03:20:44;1.85;;;1.00;;
51556;SDS011;38766;53.194;5.532;2024-03-02T03:23:09;1.10;;;1.00;;
51556;SDS011;38766;53.194;5.532;2024-03-02T03:25:40;2.30;;;0.80;;
51556;SDS011;38766;53.194;5.532;2024-03-02T03:28:06;3.17;;;0.80;;
51556;SDS011;38766;53.194;5.532;2024-03-02T03:30:31;0.82;;;0.82;;
51556;SDS011;38766;53.194;5.532;2024-03-02T03:32:57;0.80;;;0.70;;
51556;SDS011;38766;53.194;5.532;2024-03-02T03:35:23;0.80;;;0.80;;
51556;SDS011;38766;53.194;5.532;2024-03-02T03:37:48;0.70;;;0.70;;
51556;SDS011;38766;53.194;5.532;2024-03-02T03:40:14;1.13;;;0.85;;
51556;SDS011;38766;53.194;5.532;2024-03-02T03:42:39;1.05;;;0.75;;
51556;SDS011;38766;53.194;5.532;2024-03-02T03:45:05;1.45;;;1.00;;
51556;SDS011;38766;53.194;5.532;2024-03-02T03:47:32;1.10;;;0.80;;
51556;SDS011;38766;53.194;5.532;2024-03-02T03:49:58;1.30;;;0.90;;
51556;SDS011;38766;53.194;5.532;2024-03-02T03:52:23;1.65;;;0.80;;
51556;SDS011;38766;53.194;5.532;2024-03-02T03:54:49;0.47;;;0.47;;
51556;SDS011;38766;53.194;5.532;2024-03-02T03:57:15;0.80;;;0.80;;
51556;SDS011;38766;53.194;5.532;2024-03-02T03:59:41;1.15;;;0.88;;
51556;SDS011;38766;53.194;5.532;2024-03-02T04:02:07;1.48;;;1.38;;
51556;SDS011;38766;53.194;5.532;2024-03-02T04:04:33;1.15;;;1.05;;
51556;SDS011;38766;53.194;5.532;2024-03-02T04:06:59;1.33;;;1.20;;
51556;SDS011;38766;53.194;5.532;2024-03-02T04:09:25;1.23;;;1.05;;
51556;SDS011;38766;53.194;5.532;2024-03-02T04:11:50;1.38;;;1.23;;
51556;SDS011;38766;53.194;5.532;2024-03-02T04:14:16;2.40;;;1.10;;
51556;SDS011;38766;53.194;5.532;2024-03-02T04:16:42;1.25;;;0.98;;
51556;SDS011;38766;53.194;5.532;2024-03-02T04:19:08;1.42;;;1.00;;
51556;SDS011;38766;53.194;5.532;2024-03-02T04:21:33;1.15;;;0.90;;
51556;SDS011;38766;53.194;5.532;2024-03-02T04:23:59;1.00;;;1.00;;
51556;SDS011;38766;53.194;5.532;2024-03-02T04:26:25;0.90;;;0.90;;
51556;SDS011;38766;53.194;5.532;2024-03-02T04:28:51;1.13;;;0.85;;
51556;SDS011;38766;53.194;5.532;2024-03-02T04:31:17;2.70;;;0.68;;
51556;SDS011;38766;53.194;5.532;2024-03-02T04:33:43;2.08;;;0.75;;
51556;SDS011;38766;53.194;5.532;2024-03-02T04:36:09;1.52;;;0.65;;
51556;SDS011;38766;53.194;5.532;2024-03-02T04:38:35;0.70;;;0.70;;
51556;SDS011;38766;53.194;5.532;2024-03-02T04:41:00;2.00;;;1.00;;
51556;SDS011;38766;53.194;5.532;2024-03-02T04:43:26;1.77;;;1.00;;
51556;SDS011;38766;53.194;5.532;2024-03-02T04:45:52;0.98;;;0.75;;
51556;SDS011;38766;53.194;5.532;2024-03-02T04:48:17;0.82;;;0.70;;
51556;SDS011;38766;53.194;5.532;2024-03-02T04:50:44;2.85;;;0.82;;
51556;SDS011;38766;53.194;5.532;2024-03-02T04:53:09;0.50;;;0.50;;
51556;SDS011;38766;53.194;5.532;2024-03-02T04:55:35;0.98;;;0.85;;
51556;SDS011;38766;53.194;5.532;2024-03-02T04:58:04;0.50;;;0.50;;
51556;SDS011;38766;53.194;5.532;2024-03-02T05:00:30;0.70;;;0.70;;
51556;SDS011;38766;53.194;5.532;2024-03-02T05:02:55;0.90;;;0.57;;
51556;SDS011;38766;53.194;5.532;2024-03-02T05:05:21;0.73;;;0.50;;
51556;SDS011;38766;53.194;5.532;2024-03-02T05:07:47;0.93;;;0.75;;
51556;SDS011;38766;53.194;5.532;2024-03-02T05:10:12;0.95;;;0.90;;
51556;SDS011;38766;53.194;5.532;2024-03-02T05:12:38;1.65;;;0.70;;
51556;SDS011;38766;53.194;5.532;2024-03-02T05:15:10;1.42;;;0.80;;
51556;SDS011;38766;53.194;5.532;2024-03-02T05:17:37;0.80;;;0.80;;
51556;SDS011;38766;53.194;5.532;2024-03-02T05:20:05;1.95;;;0.95;;
51556;SDS011;38766;53.194;5.532;2024-03-02T05:22:35;3.28;;;1.02;;
51556;SDS011;38766;53.194;5.532;2024-03-02T05:25:02;1.23;;;0.82;;
51556;SDS011;38766;53.194;5.532;2024-03-02T05:27:28;1.52;;;0.90;;
51556;SDS011;38766;53.194;5.532;2024-03-02T05:29:54;3.30;;;1.20;;
51556;SDS011;38766;53.194;5.532;2024-03-02T05:32:20;2.15;;;1.02;;
51556;SDS011;38766;53.194;5.532;2024-03-02T05:34:46;0.90;;;0.90;;
51556;SDS011;38766;53.194;5.532;2024-03-02T05:37:11;2.42;;;1.23;;
51556;SDS011;38766;53.194;5.532;2024-03-02T05:39:37;2.30;;;1.15;;
51556;SDS011;38766;53.194;5.532;2024-03-02T05:42:03;1.58;;;1.10;;
51556;SDS011;38766;53.194;5.532;2024-03-02T05:44:31;3.25;;;1.10;;
51556;SDS011;38766;53.194;5.532;2024-03-02T05:46:57;2.83;;;1.02;;
51556;SDS011;38766;53.194;5.532;2024-03-02T05:49:22;1.38;;;1.00;;
51556;SDS011;38766;53.194;5.532;2024-03-02T05:51:48;1.60;;;0.80;;
51556;SDS011;38766;53.194;5.532;2024-03-02T05:54:15;1.08;;;0.93;;
51556;SDS011;38766;53.194;5.532;2024-03-02T05:56:40;2.00;;;1.08;;
51556;SDS011;38766;53.194;5.532;2024-03-02T05:59:06;1.83;;;0.98;;
51556;SDS011;38766;53.194;5.532;2024-03-02T06:01:46;1.20;;;0.95;;
51556;SDS011;38766;53.194;5.532;2024-03-02T06:04:13;2.17;;;0.90;;
51556;SDS011;38766;53.194;5.532;2024-03-02T06:06:39;1.60;;;1.30;;
51556;SDS011;38766;53.194;5.532;2024-03-02T06:09:05;1.60;;;1.00;;
51556;SDS011;38766;53.194;5.532;2024-03-02T06:11:37;1.88;;;1.00;;
51556;SDS011;38766;53.194;5.532;2024-03-02T06:14:04;1.50;;;1.08;;
51556;SDS011;38766;53.194;5.532;2024-03-02T06:16:30;2.45;;;0.93;;
51556;SDS011;38766;53.194;5.532;2024-03-02T06:18:56;2.17;;;0.80;;
51556;SDS011;38766;53.194;5.532;2024-03-02T06:21:26;0.50;;;0.50;;
51556;SDS011;38766;53.194;5.532;2024-03-02T06:23:52;4.95;;;1.17;;
51556;SDS011;38766;53.194;5.532;2024-03-02T06:26:18;1.33;;;1.02;;
51556;SDS011;38766;53.194;5.532;2024-03-02T06:28:44;1.48;;;0.90;;
51556;SDS011;38766;53.194;5.532;2024-03-02T06:31:10;1.60;;;0.95;;
51556;SDS011;38766;53.194;5.532;2024-03-02T06:33:36;1.25;;;0.98;;
51556;SDS011;38766;53.194;5.532;2024-03-02T06:36:02;2.00;;;0.68;;
51556;SDS011;38766;53.194;5.532;2024-03-02T06:38:28;1.45;;;0.90;;
51556;SDS011;38766;53.194;5.532;2024-03-02T06:40:54;2.50;;;1.08;;
51556;SDS011;38766;53.194;5.532;2024-03-02T06:43:22;1.08;;;0.90;;
51556;SDS011;38766;53.194;5.532;2024-03-02T06:45:49;1.30;;;1.08;;
51556;SDS011;38766;53.194;5.532;2024-03-02T06:48:17;1.23;;;0.70;;
51556;SDS011;38766;53.194;5.532;2024-03-02T06:50:45;2.70;;;1.13;;
51556;SDS011;38766;53.194;5.532;2024-03-02T06:53:14;1.98;;;1.20;;
51556;SDS011;38766;53.194;5.532;2024-03-02T06:55:43;1.00;;;0.98;;
51556;SDS011;38766;53.194;5.532;2024-03-02T06:58:09;3.67;;;1.17;;
51556;SDS011;38766;53.194;5.532;2024-03-02T07:00:36;0.80;;;0.80;;
51556;SDS011;38766;53.194;5.532;2024-03-02T07:03:01;1.15;;;0.90;;
51556;SDS011;38766;53.194;5.532;2024-03-02T07:05:27;1.75;;;1.00;;
51556;SDS011;38766;53.194;5.532;2024-03-02T07:07:53;2.55;;;1.08;;
51556;SDS011;38766;53.194;5.532;2024-03-02T07:10:18;1.02;;;0.90;;
51556;SDS011;38766;53.194;5.532;2024-03-02T07:12:44;2.33;;;1.40;;
51556;SDS011;38766;53.194;5.532;2024-03-02T07:15:09;2.08;;;1.08;;
51556;SDS011;38766;53.194;5.532;2024-03-02T07:17:50;3.13;;;1.20;;
51556;SDS011;38766;53.194;5.532;2024-03-02T07:20:16;4.65;;;1.45;;
51556;SDS011;38766;53.194;5.532;2024-03-02T07:22:42;1.27;;;1.15;;
51556;SDS011;38766;53.194;5.532;2024-03-02T07:25:08;2.22;;;1.20;;
51556;SDS011;38766;53.194;5.532;2024-03-02T07:27:33;2.90;;;1.30;;
51556;SDS011;38766;53.194;5.532;2024-03-02T07:30:01;3.38;;;1.30;;
51556;SDS011;38766;53.194;5.532;2024-03-02T07:32:27;2.15;;;1.33;;
51556;SDS011;38766;53.194;5.532;2024-03-02T07:34:53;1.20;;;1.10;;
51556;SDS011;38766;53.194;5.532;2024-03-02T07:37:18;6.22;;;1.63;;
51556;SDS011;38766;53.194;5.532;2024-03-02T07:39:45;1.67;;;1.10;;
51556;SDS011;38766;53.194;5.532;2024-03-02T07:42:11;2.47;;;1.40;;
51556;SDS011;38766;53.194;5.532;2024-03-02T07:44:36;5.63;;;1.33;;
51556;SDS011;38766;53.194;5.532;2024-03-02T07:47:02;4.35;;;1.33;;
51556;SDS011;38766;53.194;5.532;2024-03-02T07:49:28;2.60;;;1.35;;
51556;SDS011;38766;53.194;5.532;2024-03-02T07:51:54;4.22;;;1.10;;
51556;SDS011;38766;53.194;5.532;2024-03-02T07:54:20;3.53;;;1.55;;
51556;SDS011;38766;53.194;5.532;2024-03-02T07:56:46;1.98;;;1.38;;
51556;SDS011;38766;53.194;5.532;2024-03-02T07:59:12;2.83;;;1.55;;
51556;SDS011;38766;53.194;5.532;2024-03-02T08:01:38;2.97;;;1.40;;
51556;SDS011;38766;53.194;5.532;2024-03-02T08:04:04;1.88;;;1.13;;
51556;SDS011;38766;53.194;5.532;2024-03-02T08:06:29;1.60;;;1.27;;
51556;SDS011;38766;53.194;5.532;2024-03-02T08:08:56;1.45;;;1.35;;
51556;SDS011;38766;53.194;5.532;2024-03-02T08:11:22;1.75;;;1.60;;
51556;SDS011;38766;53.194;5.532;2024-03-02T08:13:48;2.75;;;1.00;;
51556;SDS011;38766;53.194;5.532;2024-03-02T08:16:14;1.80;;;1.23;;
51556;SDS011;38766;53.194;5.532;2024-03-02T08:18:41;1.30;;;1.17;;
51556;SDS011;38766;53.194;5.532;2024-03-02T08:21:07;2.47;;;0.98;;
51556;SDS011;38766;53.194;5.532;2024-03-02T08:23:33;1.42;;;0.88;;
51556;SDS011;38766;53.194;5.532;2024-03-02T08:25:59;2.13;;;1.25;;
51556;SDS011;38766;53.194;5.532;2024-03-02T08:28:25;2.95;;;1.13;;
51556;SDS011;38766;53.194;5.532;2024-03-02T08:30:51;4.47;;;1.15;;
51556;SDS011;38766;53.194;5.532;2024-03-02T08:33:16;1.50;;;0.95;;
51556;SDS011;38766;53.194;5.532;2024-03-02T08:35:42;2.97;;;1.20;;
51556;SDS011;38766;53.194;5.532;2024-03-02T08:38:08;1.52;;;0.88;;
51556;SDS011;38766;53.194;5.532;2024-03-02T08:40:33;2.58;;;1.08;;
51556;SDS011;38766;53.194;5.532;2024-03-02T08:42:59;3.80;;;1.05;;
51556;SDS011;38766;53.194;5.532;2024-03-02T08:45:25;1.90;;;0.95;;
51556;SDS011;38766;53.194;5.532;2024-03-02T08:47:50;2.30;;;1.10;;
51556;SDS011;38766;53.194;5.532;2024-03-02T08:50:16;2.05;;;0.95;;
51556;SDS011;38766;53.194;5.532;2024-03-02T08:52:41;1.98;;;0.75;;
51556;SDS011;38766;53.194;5.532;2024-03-02T08:55:08;1.65;;;0.80;;
51556;SDS011;38766;53.194;5.532;2024-03-02T08:57:34;2.78;;;1.00;;
51556;SDS011;38766;53.194;5.532;2024-03-02T09:00:00;5.32;;;1.13;;
51556;SDS011;38766;53.194;5.532;2024-03-02T09:02:26;1.98;;;0.90;;
51556;SDS011;38766;53.194;5.532;2024-03-02T09:04:51;1.77;;;0.93;;
51556;SDS011;38766;53.194;5.532;2024-03-02T09:07:18;3.10;;;1.05;;
51556;SDS011;38766;53.194;5.532;2024-03-02T09:09:43;1.88;;;0.80;;
51556;SDS011;38766;53.194;5.532;2024-03-02T09:12:09;2.45;;;1.10;;
51556;SDS011;38766;53.194;5.532;2024-03-02T09:14:36;2.08;;;1.00;;
51556;SDS011;38766;53.194;5.532;2024-03-02T09:17:02;4.10;;;0.70;;
51556;SDS011;38766;53.194;5.532;2024-03-02T09:19:28;1.98;;;0.75;;
51556;SDS011;38766;53.194;5.532;2024-03-02T09:21:54;4.07;;;1.23;;
51556;SDS011;38766;53.194;5.532;2024-03-02T09:24:21;1.65;;;0.95;;
51556;SDS011;38766;53.194;5.532;2024-03-02T09:26:46;2.67;;;1.00;;
51556;SDS011;38766;53.194;5.532;2024-03-02T09:29:12;1.85;;;1.02;;
51556;SDS011;38766;53.194;5.532;2024-03-02T09:31:41;2.10;;;1.00;;
51556;SDS011;38766;53.194;5.532;2024-03-02T09:34:08;7.05;;;0.93;;
51556;SDS011;38766;53.194;5.532;2024-03-02T09:36:34;2.50;;;0.85;;
51556;SDS011;38766;53.194;5.532;2024-03-02T09:38:59;1.98;;;0.82;;
51556;SDS011;38766;53.194;5.532;2024-03-02T09:41:25;3.50;;;1.05;;
51556;SDS011;38766;53.194;5.532;2024-03-02T09:43:51;3.83;;;1.10;;
51556;SDS011;38766;53.194;5.532;2024-03-02T09:46:17;1.98;;;0.70;;
51556;SDS011;38766;53.194;5.532;2024-03-02T09:48:44;1.25;;;0.90;;
51556;SDS011;38766;53.194;5.532;2024-03-02T09:51:10;3.67;;;1.00;;
51556;SDS011;38766;53.194;5.532;2024-03-02T09:53:36;1.50;;;0.80;;
51556;SDS011;38766;53.194;5.532;2024-03-02T09:56:02;2.55;;;1.20;;
51556;SDS011;38766;53.194;5.532;2024-03-02T09:58:29;2.80;;;0.95;;
51556;SDS011;38766;53.194;5.532;2024-03-02T10:00:55;3.60;;;1.58;;
51556;SDS011;38766;53.194;5.532;2024-03-02T10:03:22;0.80;;;0.80;;
51556;SDS011;38766;53.194;5.532;2024-03-02T10:05:49;3.78;;;1.35;;
51556;SDS011;38766;53.194;5.532;2024-03-02T10:08:15;2.05;;;1.08;;
51556;SDS011;38766;53.194;5.532;2024-03-02T10:10:41;2.95;;;1.20;;
51556;SDS011;38766;53.194;5.532;2024-03-02T10:13:08;2.10;;;0.90;;
51556;SDS011;38766;53.194;5.532;2024-03-02T10:15:35;3.70;;;1.02;;
51556;SDS011;38766;53.194;5.532;2024-03-02T10:18:03;6.18;;;1.35;;
51556;SDS011;38766;53.194;5.532;2024-03-02T10:20:29;1.55;;;1.20;;
51556;SDS011;38766;53.194;5.532;2024-03-02T10:22:55;2.40;;;1.13;;
51556;SDS011;38766;53.194;5.532;2024-03-02T10:25:34;2.92;;;1.13;;
51556;SDS011;38766;53.194;5.532;2024-03-02T10:28:00;3.80;;;1.15;;
51556;SDS011;38766;53.194;5.532;2024-03-02T10:30:29;2.90;;;1.38;;
51556;SDS011;38766;53.194;5.532;2024-03-02T10:32:55;3.55;;;1.27;;
51556;SDS011;38766;53.194;5.532;2024-03-02T10:35:24;2.38;;;1.30;;
51556;SDS011;38766;53.194;5.532;2024-03-02T10:37:51;2.35;;;1.13;;
51556;SDS011;38766;53.194;5.532;2024-03-02T10:40:18;1.42;;;1.10;;
51556;SDS011;38766;53.194;5.532;2024-03-02T10:42:46;1.13;;;1.00;;
51556;SDS011;38766;53.194;5.532;2024-03-02T10:45:13;1.35;;;1.10;;
51556;SDS011;38766;53.194;5.532;2024-03-02T10:47:42;4.65;;;1.25;;
51556;SDS011;38766;53.194;5.532;2024-03-02T10:50:09;2.40;;;1.25;;
51556;SDS011;38766;53.194;5.532;2024-03-02T10:52:35;3.95;;;1.25;;
51556;SDS011;38766;53.194;5.532;2024-03-02T10:55:01;1.63;;;1.15;;
51556;SDS011;38766;53.194;5.532;2024-03-02T10:57:33;2.80;;;1.42;;
51556;SDS011;38766;53.194;5.532;2024-03-02T11:00:22;3.58;;;1.40;;
51556;SDS011;38766;53.194;5.532;2024-03-02T11:03:02;2.85;;;1.52;;
51556;SDS011;38766;53.194;5.532;2024-03-02T11:05:36;3.72;;;1.25;;
51556;SDS011;38766;53.194;5.532;2024-03-02T11:08:07;2.42;;;0.90;;
51556;SDS011;38766;53.194;5.532;2024-03-02T11:10:34;3.20;;;1.13;;
51556;SDS011;38766;53.194;5.532;2024-03-02T11:13:02;3.20;;;1.00;;
51556;SDS011;38766;53.194;5.532;2024-03-02T11:15:31;1.63;;;1.05;;
51556;SDS011;38766;53.194;5.532;2024-03-02T11:17:59;2.58;;;1.17;;
51556;SDS011;38766;53.194;5.532;2024-03-02T11:20:26;6.53;;;1.48;;
51556;SDS011;38766;53.194;5.532;2024-03-02T11:22:53;4.45;;;1.38;;
51556;SDS011;38766;53.194;5.532;2024-03-02T11:25:26;4.72;;;1.30;;
51556;SDS011;38766;53.194;5.532;2024-03-02T11:32:59;2.97;;;1.23;;
51556;SDS011;38766;53.194;5.532;2024-03-02T11:35:37;4.50;;;1.10;;
51556;SDS011;38766;53.194;5.532;2024-03-02T11:38:13;3.78;;;1.35;;
51556;SDS011;38766;53.194;5.532;2024-03-02T11:40:39;2.53;;;1.00;;
51556;SDS011;38766;53.194;5.532;2024-03-02T11:43:05;3.53;;;0.93;;
51556;SDS011;38766;53.194;5.532;2024-03-02T11:45:31;3.35;;;1.10;;
51556;SDS011;38766;53.194;5.532;2024-03-02T11:47:59;2.08;;;1.05;;
51556;SDS011;38766;53.194;5.532;2024-03-02T11:50:34;2.85;;;1.10;;
51556;SDS011;38766;53.194;5.532;2024-03-02T11:53:03;3.97;;;1.08;;
51556;SDS011;38766;53.194;5.532;2024-03-02T11:55:34;5.55;;;1.10;;
51556;SDS011;38766;53.194;5.532;2024-03-02T11:58:02;3.33;;;1.05;;
51556;SDS011;38766;53.194;5.532;2024-03-02T12:00:31;5.07;;;1.10;;
51556;SDS011;38766;53.194;5.532;2024-03-02T12:03:10;1.65;;;1.00;;
51556;SDS011;38766;53.194;5.532;2024-03-02T12:05:38;2.63;;;0.95;;
51556;SDS011;38766;53.194;5.532;2024-03-02T12:08:07;2.35;;;1.35;;
51556;SDS011;38766;53.194;5.532;2024-03-02T12:10:33;4.20;;;1.23;;
51556;SDS011;38766;53.194;5.532;2024-03-02T12:13:01;5.18;;;1.10;;
51556;SDS011;38766;53.194;5.532;2024-03-02T12:15:31;2.25;;;0.82;;
51556;SDS011;38766;53.194;5.532;2024-03-02T12:17:58;3.15;;;0.88;;
51556;SDS011;38766;53.194;5.532;2024-03-02T12:20:24;2.40;;;0.93;;
51556;SDS011;38766;53.194;5.532;2024-03-02T12:22:52;4.93;;;1.35;;
51556;SDS011;38766;53.194;5.532;2024-03-02T12:25:22;5.93;;;1.20;;
51556;SDS011;38766;53.194;5.532;2024-03-02T12:27:49;2.95;;;1.23;;
51556;SDS011;38766;53.194;5.532;2024-03-02T12:30:16;2.10;;;1.17;;
51556;SDS011;38766;53.194;5.532;2024-03-02T12:32:42;2.83;;;1.17;;
51556;SDS011;38766;53.194;5.532;2024-03-02T12:35:10;4.15;;;1.30;;
51556;SDS011;38766;53.194;5.532;2024-03-02T12:37:45;2.53;;;1.38;;
51556;SDS011;38766;53.194;5.532;2024-03-02T12:40:13;4.75;;;1.20;;
51556;SDS011;38766;53.194;5.532;2024-03-02T12:42:40;5.43;;;1.40;;
51556;SDS011;38766;53.194;5.532;2024-03-02T12:45:07;3.83;;;1.10;;
51556;SDS011;38766;53.194;5.532;2024-03-02T12:47:34;2.72;;;1.13;;
51556;SDS011;38766;53.194;5.532;2024-03-02T12:50:00;2.85;;;1.42;;
51556;SDS011;38766;53.194;5.532;2024-03-02T12:52:27;2.13;;;0.93;;
51556;SDS011;38766;53.194;5.532;2024-03-02T12:54:53;3.03;;;0.80;;
51556;SDS011;38766;53.194;5.532;2024-03-02T12:57:26;3.22;;;1.23;;
51556;SDS011;38766;53.194;5.532;2024-03-02T12:59:57;4.65;;;1.00;;
51556;SDS011;38766;53.194;5.532;2024-03-02T13:02:26;1.98;;;0.95;;
51556;SDS011;38766;53.194;5.532;2024-03-02T13:04:53;2.13;;;1.33;;
51556;SDS011;38766;53.194;5.532;2024-03-02T13:07:19;2.95;;;0.85;;
51556;SDS011;38766;53.194;5.532;2024-03-02T13:09:47;4.10;;;1.00;;
51556;SDS011;38766;53.194;5.532;2024-03-02T13:12:15;2.53;;;0.95;;
51556;SDS011;38766;53.194;5.532;2024-03-02T13:14:41;2.15;;;1.00;;
51556;SDS011;38766;53.194;5.532;2024-03-02T13:17:07;4.07;;;1.20;;
51556;SDS011;38766;53.194;5.532;2024-03-02T13:19:34;3.10;;;1.00;;
51556;SDS011;38766;53.194;5.532;2024-03-02T13:22:00;3.00;;;1.20;;
51556;SDS011;38766;53.194;5.532;2024-03-02T13:24:27;2.35;;;0.95;;
51556;SDS011;38766;53.194;5.532;2024-03-02T13:26:56;1.77;;;1.10;;
51556;SDS011;38766;53.194;5.532;2024-03-02T13:29:23;4.47;;;1.05;;
51556;SDS011;38766;53.194;5.532;2024-03-02T13:31:49;6.28;;;1.23;;
51556;SDS011;38766;53.194;5.532;2024-03-02T13:34:15;2.00;;;0.77;;
51556;SDS011;38766;53.194;5.532;2024-03-02T13:36:40;2.55;;;1.10;;
51556;SDS011;38766;53.194;5.532;2024-03-02T13:39:06;3.92;;;0.93;;
51556;SDS011;38766;53.194;5.532;2024-03-02T13:41:34;4.75;;;1.23;;
51556;SDS011;38766;53.194;5.532;2024-03-02T13:44:00;6.43;;;1.40;;
51556;SDS011;38766;53.194;5.532;2024-03-02T13:46:26;4.03;;;0.98;;
51556;SDS011;38766;53.194;5.532;2024-03-02T13:48:52;2.83;;;1.00;;
51556;SDS011;38766;53.194;5.532;2024-03-02T13:51:19;3.50;;;1.00;;
51556;SDS011;38766;53.194;5.532;2024-03-02T13:53:45;5.60;;;1.30;;
51556;SDS011;38766;53.194;5.532;2024-03-02T13:56:10;3.15;;;1.20;;
51556;SDS011;38766;53.194;5.532;2024-03-02T13:58:36;4.10;;;1.50;;
51556;SDS011;38766;53.194;5.532;2024-03-02T14:01:02;2.85;;;0.95;;
51556;SDS011;38766;53.194;5.532;2024-03-02T14:03:29;2.50;;;1.08;;
51556;SDS011;38766;53.194;5.532;2024-03-02T14:05:55;3.55;;;1.25;;
51556;SDS011;38766;53.194;5.532;2024-03-02T14:08:21;4.38;;;1.75;;
51556;SDS011;38766;53.194;5.532;2024-03-02T14:10:46;2.97;;;1.50;;
51556;SDS011;38766;53.194;5.532;2024-03-02T14:13:12;3.60;;;1.70;;
51556;SDS011;38766;53.194;5.532;2024-03-02T14:15:37;3.65;;;1.50;;
51556;SDS011;38766;53.194;5.532;2024-03-02T14:18:05;4.68;;;1.80;;
51556;SDS011;38766;53.194;5.532;2024-03-02T14:20:31;7.72;;;2.00;;
51556;SDS011;38766;53.194;5.532;2024-03-02T14:22:58;4.22;;;1.75;;
51556;SDS011;38766;53.194;5.532;2024-03-02T14:25:24;2.72;;;1.88;;
51556;SDS011;38766;53.194;5.532;2024-03-02T14:27:50;6.97;;;2.30;;
51556;SDS011;38766;53.194;5.532;2024-03-02T14:30:16;6.60;;;2.85;;
51556;SDS011;38766;53.194;5.532;2024-03-02T14:32:41;6.53;;;2.78;;
51556;SDS011;38766;53.194;5.532;2024-03-02T14:35:07;5.10;;;2.42;;
51556;SDS011;38766;53.194;5.532;2024-03-02T14:37:36;5.28;;;2.10;;
51556;SDS011;38766;53.194;5.532;2024-03-02T14:40:02;4.07;;;1.80;;
51556;SDS011;38766;53.194;5.532;2024-03-02T14:42:31;5.97;;;2.30;;
51556;SDS011;38766;53.194;5.532;2024-03-02T14:44:57;5.05;;;2.28;;
51556;SDS011;38766;53.194;5.532;2024-03-02T14:47:22;6.10;;;1.85;;
51556;SDS011;38766;53.194;5.532;2024-03-02T14:49:49;4.40;;;1.58;;
51556;SDS011;38766;53.194;5.532;2024-03-02T14:52:15;3.08;;;2.28;;
51556;SDS011;38766;53.194;5.532;2024-03-02T14:54:43;3.00;;;1.13;;
51556;SDS011;38766;53.194;5.532;2024-03-02T14:57:09;3.42;;;1.70;;